createdAt,value
2018-05-25T00:00:18.591Z,0
2018-05-25T00:01:23.919Z,0
2018-05-25T00:02:29.076Z,0
2018-05-25T00:03:34.837Z,0
2018-05-25T00:04:39.991Z,0
2018-05-25T00:05:44.597Z,0
2018-05-25T00:06:50.128Z,0
2018-05-25T00:07:55.003Z,0
2018-05-25T00:09:00.445Z,0
2018-05-25T00:10:05.860Z,0
2018-05-25T00:11:10.469Z,0
2018-05-25T00:12:15.937Z,0
2018-05-25T00:13:21.734Z,0
2018-05-25T00:14:26.654Z,0
2018-05-25T00:15:32.738Z,0
2018-05-25T00:16:38.183Z,0
2018-05-25T00:17:42.782Z,0
2018-05-25T00:18:47.936Z,0
2018-05-25T00:19:53.103Z,0
2018-05-25T00:20:58.564Z,0
2018-05-25T00:22:02.936Z,0
2018-05-25T00:23:07.820Z,0
2018-05-25T00:24:12.990Z,0
2018-05-25T00:25:18.786Z,0
2018-05-25T00:26:23.950Z,0
2018-05-25T00:27:29.700Z,0
2018-05-25T00:28:35.151Z,0
2018-05-25T00:29:40.322Z,0
2018-05-25T00:30:45.927Z,0
2018-05-25T00:31:51.373Z,0
2018-05-25T00:32:56.824Z,0
2018-05-25T00:34:01.759Z,0
2018-05-25T00:35:06.634Z,0
2018-05-25T00:36:11.802Z,0
2018-05-25T00:37:17.614Z,0
2018-05-25T00:38:22.798Z,0
2018-05-25T00:39:28.588Z,0
2018-05-25T00:40:33.476Z,0
2018-05-25T00:41:38.639Z,0
2018-05-25T00:42:44.335Z,0
2018-05-25T00:43:49.500Z,0
2018-05-25T00:44:54.090Z,0
2018-05-25T00:45:59.613Z,0
2018-05-25T00:47:03.638Z,0
2018-05-25T00:48:08.801Z,0
2018-05-25T00:49:14.371Z,0
2018-05-25T00:50:19.274Z,0
2018-05-25T00:52:44.729Z,0
2018-05-25T00:53:49.898Z,0
2018-05-25T00:54:55.303Z,0
2018-05-25T00:56:00.190Z,0
2018-05-25T00:57:05.367Z,0
2018-05-25T00:58:10.827Z,0
2018-05-25T00:59:15.990Z,0
2018-05-25T01:00:21.427Z,0
2018-05-25T01:01:27.018Z,0
2018-05-25T01:02:31.902Z,0
2018-05-25T01:03:37.857Z,0
2018-05-25T01:04:43.294Z,0
2018-05-25T01:05:48.738Z,0
2018-05-25T01:06:54.446Z,0
2018-05-25T01:07:59.895Z,0
2018-05-25T01:09:05.061Z,0
2018-05-25T01:10:10.542Z,0
2018-05-25T01:11:15.712Z,0
2018-05-25T01:12:21.150Z,0
2018-05-25T01:13:41.198Z,0
2018-05-25T01:14:46.087Z,0
2018-05-25T01:15:51.977Z,0
2018-05-25T01:16:57.130Z,0
2018-05-25T01:18:02.297Z,0
2018-05-25T01:19:06.870Z,0
2018-05-25T01:20:12.032Z,0
2018-05-25T01:21:17.478Z,0
2018-05-25T01:22:22.991Z,0
2018-05-25T01:23:28.434Z,0
2018-05-25T01:24:33.583Z,0
2018-05-25T01:25:38.770Z,0
2018-05-25T01:26:43.928Z,0
2018-05-25T01:27:49.162Z,0
2018-05-25T01:28:54.332Z,0
2018-05-25T01:29:59.226Z,0
2018-05-25T01:31:04.658Z,0
2018-05-25T01:32:10.099Z,0
2018-05-25T01:33:15.259Z,0
2018-05-25T01:34:20.386Z,0
2018-05-25T01:35:25.262Z,0
2018-05-25T01:36:31.213Z,0
2018-05-25T01:37:36.119Z,0
2018-05-25T01:38:41.567Z,0
2018-05-25T01:39:47.254Z,0
2018-05-25T01:40:52.127Z,0
2018-05-25T01:41:57.578Z,0
2018-05-25T01:43:02.801Z,0
2018-05-25T01:44:08.248Z,0
2018-05-25T01:45:13.416Z,0
2018-05-25T01:46:18.836Z,0
2018-05-25T01:47:24.276Z,0
2018-05-25T01:48:29.892Z,0
2018-05-25T01:49:35.050Z,0
2018-05-25T01:50:40.546Z,0
2018-05-25T01:51:46.236Z,0
2018-05-25T01:52:51.387Z,0
2018-05-25T01:53:56.280Z,0
2018-05-25T01:55:01.882Z,0
2018-05-25T01:56:06.478Z,0
2018-05-25T01:57:11.685Z,0
2018-05-25T01:58:17.254Z,0
2018-05-25T01:59:22.416Z,0
2018-05-25T02:00:28.409Z,0
2018-05-25T02:01:33.859Z,0
2018-05-25T02:02:39.029Z,0
2018-05-25T02:03:44.979Z,0
2018-05-25T02:04:49.856Z,0
2018-05-25T02:05:55.304Z,0
2018-05-25T02:07:00.725Z,0
2018-05-25T02:08:06.190Z,0
2018-05-25T02:09:11.080Z,0
2018-05-25T02:10:16.773Z,0
2018-05-25T02:11:21.354Z,0
2018-05-25T02:12:27.155Z,0
2018-05-25T02:13:32.325Z,0
2018-05-25T02:14:37.484Z,0
2018-05-25T02:15:42.745Z,0
2018-05-25T02:16:47.902Z,0
2018-05-25T02:17:53.567Z,0
2018-05-25T02:18:59.158Z,0
2018-05-25T02:20:04.416Z,0
2018-05-25T02:21:09.585Z,0
2018-05-25T02:22:15.432Z,0
2018-05-25T02:23:20.598Z,0
2018-05-25T02:24:40.946Z,0
2018-05-25T02:25:46.389Z,0
2018-05-25T02:26:51.569Z,0
2018-05-25T02:27:57.466Z,0
2018-05-25T02:29:02.626Z,0
2018-05-25T02:30:06.668Z,0
2018-05-25T02:31:12.398Z,0
2018-05-25T02:32:17.294Z,0
2018-05-25T02:33:22.444Z,0
2018-05-25T02:34:27.624Z,0
2018-05-25T02:35:33.059Z,0
2018-05-25T02:36:38.083Z,0
2018-05-25T02:37:43.249Z,0
2018-05-25T02:38:48.685Z,0
2018-05-25T02:39:54.198Z,0
2018-05-25T02:40:59.068Z,0
2018-05-25T02:42:03.681Z,0
2018-05-25T02:43:08.815Z,0
2018-05-25T02:44:13.698Z,0
2018-05-25T02:45:19.147Z,0
2018-05-25T02:46:24.893Z,0
2018-05-25T02:47:30.053Z,0
2018-05-25T02:48:34.791Z,0
2018-05-25T02:49:39.924Z,0
2018-05-25T02:50:45.370Z,0
2018-05-25T02:51:50.791Z,0
2018-05-25T02:52:56.236Z,0
2018-05-25T02:54:01.129Z,0
2018-05-25T02:55:06.535Z,0
2018-05-25T02:56:11.710Z,0
2018-05-25T02:57:16.939Z,0
2018-05-25T02:58:22.596Z,0
2018-05-25T02:59:27.470Z,0
2018-05-25T03:00:32.629Z,0
2018-05-25T03:01:38.069Z,0
2018-05-25T03:02:43.539Z,0
2018-05-25T03:03:48.674Z,0
2018-05-25T03:04:54.120Z,0
2018-05-25T03:05:59.376Z,0
2018-05-25T03:07:04.502Z,0
2018-05-25T03:08:09.117Z,0
2018-05-25T03:09:14.269Z,0
2018-05-25T03:10:19.968Z,0
2018-05-25T03:11:24.849Z,0
2018-05-25T03:12:30.323Z,0
2018-05-25T03:13:35.779Z,0
2018-05-25T03:14:41.227Z,0
2018-05-25T03:15:46.791Z,0
2018-05-25T03:16:52.321Z,0
2018-05-25T03:17:57.210Z,0
2018-05-25T03:19:02.823Z,0
2018-05-25T03:20:07.164Z,0
2018-05-25T03:21:12.345Z,0
2018-05-25T03:22:18.049Z,0
2018-05-25T03:23:22.632Z,0
2018-05-25T03:24:28.138Z,0
2018-05-25T03:25:33.583Z,0
2018-05-25T03:26:38.461Z,0
2018-05-25T03:27:44.157Z,0
2018-05-25T03:28:48.733Z,0
2018-05-25T03:29:53.903Z,0
2018-05-25T03:30:59.430Z,0
2018-05-25T03:32:04.600Z,0
2018-05-25T03:33:10.050Z,0
2018-05-25T03:34:15.610Z,0
2018-05-25T03:35:20.767Z,0
2018-05-25T03:36:41.146Z,0
2018-05-25T03:37:46.321Z,0
2018-05-25T03:38:51.485Z,0
2018-05-25T03:39:56.900Z,6
2018-05-25T03:41:01.787Z,6
2018-05-25T03:42:06.103Z,6
2018-05-25T03:43:10.777Z,6
2018-05-25T03:44:16.216Z,6
2018-05-25T03:45:21.083Z,6
2018-05-25T03:46:41.234Z,6
2018-05-25T03:47:46.396Z,6
2018-05-25T03:48:51.805Z,6
2018-05-25T03:49:57.258Z,6
2018-05-25T03:51:02.131Z,6
2018-05-25T03:52:06.872Z,6
2018-05-25T03:53:12.312Z,6
2018-05-25T03:54:17.466Z,0
2018-05-25T03:55:22.583Z,0
2018-05-25T03:56:27.205Z,6
2018-05-25T03:57:32.760Z,6
2018-05-25T03:58:37.921Z,6
2018-05-25T03:59:43.093Z,6
2018-05-25T04:00:48.498Z,6
2018-05-25T04:01:53.650Z,6
2018-05-25T04:02:59.096Z,6
2018-05-25T04:04:04.517Z,6
2018-05-25T04:05:09.446Z,6
2018-05-25T04:06:14.882Z,6
2018-05-25T04:07:20.598Z,6
2018-05-25T04:08:26.041Z,6
2018-05-25T04:09:31.459Z,6
2018-05-25T04:10:36.628Z,6
2018-05-25T04:11:42.080Z,6
2018-05-25T04:12:47.593Z,6
2018-05-25T04:13:53.036Z,6
2018-05-25T04:14:58.201Z,24
2018-05-25T04:16:03.335Z,24
2018-05-25T04:17:08.256Z,24
2018-05-25T04:18:13.416Z,24
2018-05-25T04:19:18.835Z,24
2018-05-25T04:20:24.278Z,40
2018-05-25T04:21:30.000Z,40
2018-05-25T04:22:34.898Z,40
2018-05-25T04:23:40.341Z,40
2018-05-25T04:24:45.470Z,40
2018-05-25T04:25:50.919Z,40
2018-05-25T04:26:56.090Z,55
2018-05-25T04:28:01.527Z,55
2018-05-25T04:29:06.408Z,55
2018-05-25T04:30:11.304Z,55
2018-05-25T04:31:16.424Z,48
2018-05-25T04:32:21.859Z,48
2018-05-25T04:33:27.011Z,48
2018-05-25T04:34:31.901Z,48
2018-05-25T04:35:36.821Z,48
2018-05-25T04:36:42.267Z,48
2018-05-25T04:37:47.458Z,48
2018-05-25T04:38:52.900Z,48
2018-05-25T04:39:58.315Z,48
2018-05-25T04:41:02.931Z,64
2018-05-25T04:42:08.093Z,64
2018-05-25T04:43:13.749Z,64
2018-05-25T04:44:18.949Z,64
2018-05-25T04:46:44.727Z,80
2018-05-25T04:47:49.596Z,80
2018-05-25T04:48:55.027Z,96
2018-05-25T04:49:59.631Z,96
2018-05-25T04:51:04.503Z,96
2018-05-25T04:52:09.499Z,96
2018-05-25T04:53:14.952Z,96
2018-05-25T04:54:20.412Z,96
2018-05-25T04:55:25.857Z,80
2018-05-25T04:56:31.300Z,80
2018-05-25T04:57:36.440Z,80
2018-05-25T04:58:41.878Z,80
2018-05-25T04:59:46.791Z,80
2018-05-25T05:00:52.201Z,80
2018-05-25T05:01:57.648Z,80
2018-05-25T05:03:03.120Z,80
2018-05-25T05:04:08.893Z,80
2018-05-25T05:05:14.053Z,80
2018-05-25T05:06:19.505Z,80
2018-05-25T05:07:25.297Z,80
2018-05-25T05:08:30.456Z,80
2018-05-25T05:09:36.152Z,72
2018-05-25T05:10:41.602Z,96
2018-05-25T05:11:46.482Z,96
2018-05-25T05:12:51.968Z,80
2018-05-25T05:13:57.120Z,80
2018-05-25T05:15:02.012Z,80
2018-05-25T05:16:06.864Z,80
2018-05-25T05:17:12.325Z,80
2018-05-25T05:18:17.202Z,96
2018-05-25T05:19:22.818Z,96
2018-05-25T05:20:27.759Z,96
2018-05-25T05:21:33.612Z,72
2018-05-25T05:22:38.772Z,72
2018-05-25T05:23:44.223Z,72
2018-05-25T05:24:49.917Z,72
2018-05-25T05:25:55.357Z,72
2018-05-25T05:27:00.525Z,88
2018-05-25T05:28:05.759Z,88
2018-05-25T05:29:11.212Z,88
2018-05-25T05:30:15.852Z,88
2018-05-25T05:31:21.287Z,88
2018-05-25T05:32:26.738Z,72
2018-05-25T05:33:32.905Z,72
2018-05-25T05:34:38.089Z,72
2018-05-25T05:35:42.966Z,72
2018-05-25T05:36:48.586Z,88
2018-05-25T05:37:53.735Z,88
2018-05-25T05:38:58.902Z,104
2018-05-25T05:40:03.766Z,95
2018-05-25T05:41:08.635Z,95
2018-05-25T05:42:13.537Z,95
2018-05-25T05:43:18.944Z,95
2018-05-25T05:44:23.543Z,95
2018-05-25T05:45:29.141Z,95
2018-05-25T05:46:33.777Z,112
2018-05-25T05:47:38.951Z,112
2018-05-25T05:48:44.740Z,128
2018-05-25T05:49:49.621Z,128
2018-05-25T05:50:55.165Z,128
2018-05-25T05:52:00.651Z,128
2018-05-25T05:53:05.543Z,128
2018-05-25T05:54:10.692Z,128
2018-05-25T05:55:16.206Z,128
2018-05-25T05:56:21.652Z,112
2018-05-25T05:57:27.415Z,128
2018-05-25T05:58:32.021Z,128
2018-05-25T05:59:37.190Z,128
2018-05-25T06:00:42.699Z,128
2018-05-25T06:01:47.864Z,128
2018-05-25T06:02:53.034Z,145
2018-05-25T06:03:58.543Z,145
2018-05-25T06:05:03.352Z,145
2018-05-25T06:06:08.788Z,145
2018-05-25T06:07:14.264Z,145
2018-05-25T06:08:19.147Z,161
2018-05-25T06:09:24.298Z,161
2018-05-25T06:10:29.348Z,161
2018-05-25T06:11:34.250Z,161
2018-05-25T06:12:39.763Z,161
2018-05-25T06:13:44.948Z,161
2018-05-25T06:14:50.109Z,136
2018-05-25T06:15:55.530Z,169
2018-05-25T06:17:00.696Z,192
2018-05-25T06:18:06.148Z,176
2018-05-25T06:19:11.844Z,176
2018-05-25T06:20:17.315Z,192
2018-05-25T06:21:22.509Z,192
2018-05-25T06:22:28.572Z,209
2018-05-25T06:23:33.782Z,183
2018-05-25T06:24:39.640Z,200
2018-05-25T06:25:44.802Z,209
2018-05-25T06:26:49.669Z,216
2018-05-25T06:27:55.117Z,216
2018-05-25T06:29:00.006Z,224
2018-05-25T06:30:04.888Z,240
2018-05-25T06:31:10.306Z,200
2018-05-25T06:32:15.486Z,192
2018-05-25T06:33:20.641Z,176
2018-05-25T06:34:25.774Z,176
2018-05-25T06:35:30.644Z,176
2018-05-25T06:36:35.734Z,159
2018-05-25T06:37:40.907Z,185
2018-05-25T06:38:46.063Z,169
2018-05-25T06:39:50.902Z,169
2018-05-25T06:40:56.346Z,169
2018-05-25T06:42:01.230Z,169
2018-05-25T06:43:06.228Z,169
2018-05-25T06:44:10.820Z,169
2018-05-25T06:45:15.973Z,185
2018-05-25T06:46:21.383Z,159
2018-05-25T06:47:26.560Z,176
2018-05-25T06:48:31.979Z,192
2018-05-25T06:49:36.859Z,209
2018-05-25T06:50:42.111Z,209
2018-05-25T06:51:47.875Z,200
2018-05-25T06:52:53.030Z,200
2018-05-25T06:53:58.490Z,200
2018-05-25T06:55:03.161Z,200
2018-05-25T06:56:07.772Z,209
2018-05-25T06:57:13.212Z,209
2018-05-25T06:58:19.018Z,209
2018-05-25T06:59:24.201Z,209
2018-05-25T07:00:29.349Z,225
2018-05-25T07:01:34.230Z,216
2018-05-25T07:02:39.097Z,288
2018-05-25T07:03:44.609Z,233
2018-05-25T07:04:50.062Z,264
2018-05-25T07:05:55.231Z,264
2018-05-25T07:07:00.666Z,224
2018-05-25T07:08:06.109Z,224
2018-05-25T07:09:11.278Z,249
2018-05-25T07:10:16.973Z,280
2018-05-25T07:11:21.859Z,319
2018-05-25T07:12:27.763Z,304
2018-05-25T07:13:32.916Z,312
2018-05-25T07:14:38.070Z,280
2018-05-25T07:15:43.583Z,264
2018-05-25T07:16:49.015Z,257
2018-05-25T07:17:54.173Z,249
2018-05-25T07:18:59.642Z,233
2018-05-25T07:20:04.255Z,233
2018-05-25T07:21:09.726Z,225
2018-05-25T07:22:15.135Z,209
2018-05-25T07:23:20.287Z,216
2018-05-25T07:24:25.677Z,257
2018-05-25T07:25:30.865Z,247
2018-05-25T07:26:35.460Z,247
2018-05-25T07:27:41.308Z,224
2018-05-25T07:28:46.765Z,200
2018-05-25T07:29:51.947Z,200
2018-05-25T07:30:57.105Z,192
2018-05-25T07:32:02.288Z,192
2018-05-25T07:33:07.175Z,192
2018-05-25T07:34:12.590Z,209
2018-05-25T07:35:17.452Z,200
2018-05-25T07:36:22.942Z,216
2018-05-25T07:37:28.567Z,233
2018-05-25T07:38:33.725Z,257
2018-05-25T07:39:39.239Z,216
2018-05-25T07:40:44.398Z,271
2018-05-25T07:41:49.855Z,240
2018-05-25T07:42:55.261Z,216
2018-05-25T07:44:00.692Z,216
2018-05-25T07:45:05.570Z,216
2018-05-25T07:46:10.975Z,216
2018-05-25T07:47:15.847Z,200
2018-05-25T07:48:21.278Z,200
2018-05-25T07:49:26.274Z,225
2018-05-25T07:50:31.157Z,216
2018-05-25T07:51:36.617Z,224
2018-05-25T07:52:41.491Z,280
2018-05-25T07:53:46.725Z,240
2018-05-25T07:54:52.181Z,264
2018-05-25T07:55:57.055Z,233
2018-05-25T07:57:02.507Z,216
2018-05-25T07:58:07.185Z,247
2018-05-25T07:59:12.619Z,224
2018-05-25T08:00:18.386Z,231
2018-05-25T08:01:23.830Z,209
2018-05-25T08:02:29.261Z,200
2018-05-25T08:03:35.044Z,224
2018-05-25T08:04:40.491Z,233
2018-05-25T08:05:45.649Z,288
2018-05-25T08:06:51.585Z,295
2018-05-25T08:07:56.774Z,257
2018-05-25T08:09:02.203Z,288
2018-05-25T08:10:07.066Z,224
2018-05-25T08:11:12.158Z,224
2018-05-25T08:12:17.601Z,224
2018-05-25T08:13:23.482Z,257
2018-05-25T08:14:28.641Z,247
2018-05-25T08:15:34.519Z,271
2018-05-25T08:16:39.956Z,280
2018-05-25T08:17:45.387Z,295
2018-05-25T08:18:51.072Z,304
2018-05-25T08:19:56.543Z,312
2018-05-25T08:21:01.979Z,240
2018-05-25T08:22:07.074Z,240
2018-05-25T08:23:12.363Z,257
2018-05-25T08:24:17.803Z,240
2018-05-25T08:25:23.987Z,240
2018-05-25T08:26:29.201Z,257
2018-05-25T08:27:34.930Z,240
2018-05-25T08:28:40.362Z,257
2018-05-25T08:29:45.237Z,224
2018-05-25T08:30:50.417Z,224
2018-05-25T08:31:55.280Z,231
2018-05-25T08:33:00.157Z,224
2018-05-25T08:34:05.552Z,224
2018-05-25T08:35:10.415Z,264
2018-05-25T08:36:15.861Z,295
2018-05-25T08:37:21.398Z,271
2018-05-25T08:38:26.553Z,343
2018-05-25T08:39:32.549Z,304
2018-05-25T08:40:37.733Z,264
2018-05-25T08:41:42.896Z,264
2018-05-25T08:42:48.308Z,288
2018-05-25T08:43:53.481Z,271
2018-05-25T08:44:58.639Z,304
2018-05-25T08:46:04.237Z,233
2018-05-25T08:47:09.150Z,295
2018-05-25T08:48:14.581Z,288
2018-05-25T08:49:19.994Z,295
2018-05-25T08:50:25.177Z,288
2018-05-25T08:51:30.487Z,288
2018-05-25T08:52:35.644Z,304
2018-05-25T08:53:40.849Z,326
2018-05-25T08:54:46.423Z,280
2018-05-25T08:55:51.975Z,264
2018-05-25T08:56:57.135Z,264
2018-05-25T08:58:02.530Z,280
2018-05-25T08:59:06.843Z,264
2018-05-25T09:00:11.720Z,264
2018-05-25T09:01:16.940Z,264
2018-05-25T09:02:21.549Z,271
2018-05-25T09:03:27.432Z,280
2018-05-25T09:04:32.965Z,288
2018-05-25T09:05:38.144Z,288
2018-05-25T09:06:43.794Z,280
2018-05-25T09:07:48.492Z,240
2018-05-25T09:08:53.659Z,249
2018-05-25T09:09:59.458Z,224
2018-05-25T09:11:04.640Z,207
2018-05-25T09:12:09.980Z,257
2018-05-25T09:13:15.455Z,247
2018-05-25T09:14:20.046Z,280
2018-05-25T09:15:25.971Z,352
2018-05-25T09:16:31.404Z,328
2018-05-25T09:17:36.555Z,295
2018-05-25T09:18:41.673Z,335
2018-05-25T09:19:46.842Z,335
2018-05-25T09:20:52.160Z,304
2018-05-25T09:21:58.183Z,304
2018-05-25T09:23:03.476Z,312
2018-05-25T09:24:08.649Z,321
2018-05-25T09:25:13.887Z,376
2018-05-25T09:26:19.042Z,383
2018-05-25T09:27:23.909Z,368
2018-05-25T09:28:29.942Z,295
2018-05-25T09:29:35.093Z,271
2018-05-25T09:30:40.720Z,247
2018-05-25T09:31:46.121Z,280
2018-05-25T09:32:50.977Z,271
2018-05-25T09:33:56.634Z,288
2018-05-25T09:35:01.245Z,288
2018-05-25T09:36:04.987Z,288
2018-05-25T09:37:10.214Z,312
2018-05-25T09:38:15.372Z,295
2018-05-25T09:39:20.808Z,279
2018-05-25T09:40:41.037Z,288
2018-05-25T09:41:46.353Z,271
2018-05-25T09:42:51.510Z,271
2018-05-25T09:43:56.695Z,271
2018-05-25T09:45:01.851Z,288
2018-05-25T09:46:06.414Z,295
2018-05-25T09:47:11.847Z,295
2018-05-25T09:48:16.730Z,295
2018-05-25T09:49:21.847Z,295
2018-05-25T09:50:26.668Z,288
2018-05-25T09:51:31.523Z,271
2018-05-25T09:52:36.890Z,271
2018-05-25T09:53:42.034Z,271
2018-05-25T09:54:47.177Z,271
2018-05-25T09:55:52.332Z,288
2018-05-25T09:56:57.783Z,288
2018-05-25T09:58:03.267Z,288
2018-05-25T09:59:08.644Z,288
2018-05-25T10:00:13.534Z,288
2018-05-25T10:01:19.031Z,271
2018-05-25T10:02:24.465Z,271
2018-05-25T10:03:29.664Z,288
2018-05-25T10:04:34.964Z,288
2018-05-25T10:05:40.140Z,288
2018-05-25T10:06:45.028Z,304
2018-05-25T10:07:50.473Z,312
2018-05-25T10:08:55.654Z,328
2018-05-25T10:10:01.051Z,319
2018-05-25T10:11:06.218Z,312
2018-05-25T10:12:11.377Z,295
2018-05-25T10:13:16.606Z,312
2018-05-25T10:14:21.113Z,312
2018-05-25T10:15:41.043Z,321
2018-05-25T10:16:46.502Z,304
2018-05-25T10:17:51.458Z,304
2018-05-25T10:18:56.786Z,328
2018-05-25T10:20:01.452Z,328
2018-05-25T10:21:06.626Z,367
2018-05-25T10:22:12.301Z,328
2018-05-25T10:23:17.466Z,328
2018-05-25T10:24:22.825Z,312
2018-05-25T10:25:28.122Z,295
2018-05-25T10:26:33.560Z,328
2018-05-25T10:27:38.719Z,328
2018-05-25T10:28:43.628Z,328
2018-05-25T10:29:48.837Z,328
2018-05-25T10:30:54.279Z,319
2018-05-25T10:31:59.712Z,319
2018-05-25T10:33:05.157Z,335
2018-05-25T10:34:10.674Z,328
2018-05-25T10:35:15.533Z,312
2018-05-25T10:36:20.690Z,312
2018-05-25T10:37:26.822Z,321
2018-05-25T10:38:32.267Z,295
2018-05-25T10:39:37.960Z,304
2018-05-25T10:40:43.393Z,288
2018-05-25T10:41:48.824Z,280
2018-05-25T10:42:53.975Z,271
2018-05-25T10:43:59.135Z,271
2018-05-25T10:45:04.290Z,280
2018-05-25T10:46:09.423Z,271
2018-05-25T10:47:14.633Z,271
2018-05-25T10:48:20.053Z,297
2018-05-25T10:49:25.282Z,280
2018-05-25T10:50:30.712Z,280
2018-05-25T10:51:36.132Z,280
2018-05-25T10:52:41.009Z,280
2018-05-25T10:53:45.875Z,280
2018-05-25T10:54:51.288Z,280
2018-05-25T10:55:56.520Z,280
2018-05-25T10:57:01.500Z,280
2018-05-25T10:58:07.041Z,280
2018-05-25T10:59:12.192Z,280
2018-05-25T11:00:17.355Z,271
2018-05-25T11:01:22.581Z,304
2018-05-25T11:02:28.362Z,288
2018-05-25T11:03:33.401Z,304
2018-05-25T11:04:38.279Z,288
2018-05-25T11:05:43.740Z,304
2018-05-25T11:06:49.156Z,304
2018-05-25T11:07:54.588Z,295
2018-05-25T11:08:59.206Z,312
2018-05-25T11:10:04.814Z,328
2018-05-25T11:11:10.473Z,319
2018-05-25T11:12:15.627Z,343
2018-05-25T11:13:20.598Z,352
2018-05-25T11:14:25.721Z,335
2018-05-25T11:15:31.107Z,335
2018-05-25T11:16:36.270Z,352
2018-05-25T11:17:41.701Z,392
2018-05-25T11:18:47.134Z,359
2018-05-25T11:19:52.591Z,335
2018-05-25T11:20:57.853Z,335
2018-05-25T11:22:03.466Z,335
2018-05-25T11:23:08.618Z,344
2018-05-25T11:24:13.772Z,328
2018-05-25T11:25:19.455Z,328
2018-05-25T11:26:24.904Z,328
2018-05-25T11:27:30.566Z,304
2018-05-25T11:28:35.132Z,288
2018-05-25T11:29:40.211Z,264
2018-05-25T11:30:45.321Z,264
2018-05-25T11:31:50.469Z,264
2018-05-25T11:32:55.624Z,247
2018-05-25T11:34:01.024Z,264
2018-05-25T11:35:06.466Z,280
2018-05-25T11:36:11.630Z,280
2018-05-25T11:37:17.038Z,264
2018-05-25T11:38:22.120Z,264
2018-05-25T11:39:27.814Z,304
2018-05-25T11:40:33.257Z,335
2018-05-25T11:41:38.418Z,304
2018-05-25T11:42:44.307Z,304
2018-05-25T11:43:49.764Z,321
2018-05-25T11:44:55.377Z,390
2018-05-25T11:46:00.662Z,438
2018-05-25T11:47:05.527Z,344
2018-05-25T11:48:10.399Z,335
2018-05-25T11:49:15.811Z,478
2018-05-25T11:50:20.964Z,398
2018-05-25T11:51:26.450Z,328
2018-05-25T11:52:31.887Z,257
2018-05-25T11:53:37.042Z,224
2018-05-25T11:54:42.586Z,233
2018-05-25T11:55:47.737Z,216
2018-05-25T11:56:52.902Z,233
2018-05-25T11:57:57.818Z,264
2018-05-25T11:59:02.694Z,288
2018-05-25T12:00:07.859Z,247
2018-05-25T12:01:12.977Z,257
2018-05-25T12:02:18.131Z,374
2018-05-25T12:03:23.278Z,247
2018-05-25T12:04:28.394Z,233
2018-05-25T12:05:33.839Z,233
2018-05-25T12:06:39.240Z,233
2018-05-25T12:07:44.159Z,216
2018-05-25T12:08:49.592Z,200
2018-05-25T12:09:54.990Z,200
2018-05-25T12:10:59.875Z,200
2018-05-25T12:12:05.028Z,200
2018-05-25T12:13:10.540Z,200
2018-05-25T12:14:15.696Z,200
2018-05-25T12:15:20.556Z,200
2018-05-25T12:16:26.322Z,209
2018-05-25T12:17:31.317Z,192
2018-05-25T12:18:36.726Z,192
2018-05-25T12:19:41.893Z,192
2018-05-25T12:20:47.532Z,192
2018-05-25T12:21:52.669Z,192
2018-05-25T12:22:57.814Z,209
2018-05-25T12:24:02.109Z,209
2018-05-25T12:25:07.054Z,200
2018-05-25T12:26:12.692Z,200
2018-05-25T12:27:18.128Z,200
2018-05-25T12:28:24.031Z,216
2018-05-25T12:29:29.463Z,216
2018-05-25T12:30:35.009Z,233
2018-05-25T12:31:40.161Z,233
2018-05-25T12:32:45.306Z,233
2018-05-25T12:33:50.930Z,233
2018-05-25T12:34:56.083Z,224
2018-05-25T12:36:00.958Z,224
2018-05-25T12:37:06.085Z,224
2018-05-25T12:38:11.242Z,224
2018-05-25T12:39:15.813Z,240
2018-05-25T12:40:21.244Z,247
2018-05-25T12:41:26.116Z,271
2018-05-25T12:42:31.740Z,255
2018-05-25T12:43:37.393Z,288
2018-05-25T12:44:42.569Z,288
2018-05-25T12:45:47.770Z,288
2018-05-25T12:46:52.654Z,280
2018-05-25T12:47:58.096Z,297
2018-05-25T12:49:02.411Z,280
2018-05-25T12:50:07.617Z,288
2018-05-25T12:51:12.858Z,295
2018-05-25T12:52:18.276Z,295
2018-05-25T12:53:23.135Z,288
2018-05-25T12:54:28.713Z,247
2018-05-25T12:55:33.865Z,240
2018-05-25T12:56:39.106Z,240
2018-05-25T12:57:44.847Z,231
2018-05-25T12:58:50.293Z,240
2018-05-25T12:59:55.756Z,240
2018-05-25T13:01:00.889Z,257
2018-05-25T13:02:05.484Z,264
2018-05-25T13:03:10.874Z,312
2018-05-25T13:04:16.659Z,271
2018-05-25T13:05:21.820Z,288
2018-05-25T13:06:27.455Z,240
2018-05-25T13:07:32.875Z,240
2018-05-25T13:08:37.764Z,224
2018-05-25T13:09:43.183Z,238
2018-05-25T13:10:48.242Z,319
2018-05-25T13:11:53.109Z,325
2018-05-25T13:12:58.793Z,325
2018-05-25T13:14:03.939Z,294
2018-05-25T13:15:08.797Z,264
2018-05-25T13:16:14.132Z,288
2018-05-25T13:17:18.704Z,286
2018-05-25T13:18:23.848Z,310
2018-05-25T13:19:30.388Z,334
2018-05-25T13:20:35.180Z,334
2018-05-25T13:21:40.955Z,257
2018-05-25T13:22:46.186Z,383
2018-05-25T13:23:51.340Z,390
2018-05-25T13:24:56.737Z,407
2018-05-25T13:26:01.616Z,423
2018-05-25T13:27:06.207Z,423
2018-05-25T13:28:12.038Z,440
2018-05-25T13:29:16.945Z,431
2018-05-25T13:30:22.101Z,431
2018-05-25T13:31:27.581Z,423
2018-05-25T13:32:32.727Z,377
2018-05-25T13:33:38.421Z,353
2018-05-25T13:34:43.293Z,385
2018-05-25T13:35:48.447Z,392
2018-05-25T13:36:53.576Z,407
2018-05-25T13:37:58.739Z,392
2018-05-25T13:39:03.904Z,416
2018-05-25T13:40:09.320Z,385
2018-05-25T13:41:14.481Z,368
2018-05-25T13:42:19.356Z,385
2018-05-25T13:43:24.594Z,376
2018-05-25T13:44:30.028Z,352
2018-05-25T13:45:34.967Z,330
2018-05-25T13:46:40.122Z,297
2018-05-25T13:47:45.552Z,313
2018-05-25T13:48:51.240Z,297
2018-05-25T13:49:56.712Z,346
2018-05-25T13:51:01.867Z,321
2018-05-25T13:52:07.281Z,330
2018-05-25T13:53:12.739Z,361
2018-05-25T13:54:18.170Z,346
2018-05-25T13:55:23.953Z,306
2018-05-25T13:56:29.312Z,306
2018-05-25T13:57:35.254Z,297
2018-05-25T13:58:40.687Z,297
2018-05-25T13:59:45.570Z,304
2018-05-25T14:00:51.072Z,321
2018-05-25T14:01:56.528Z,390
2018-05-25T14:03:01.431Z,407
2018-05-25T14:04:06.846Z,398
2018-05-25T14:05:12.005Z,368
2018-05-25T14:06:17.637Z,335
2018-05-25T14:07:23.067Z,344
2018-05-25T14:08:27.935Z,392
2018-05-25T14:09:33.333Z,464
2018-05-25T14:10:38.510Z,455
2018-05-25T14:11:43.694Z,455
2018-05-25T14:12:49.666Z,455
2018-05-25T14:13:55.116Z,471
2018-05-25T14:15:00.271Z,418
2018-05-25T14:16:05.099Z,377
2018-05-25T14:17:10.010Z,425
2018-05-25T14:18:14.874Z,385
2018-05-25T14:19:20.735Z,353
2018-05-25T14:20:25.929Z,346
2018-05-25T14:21:31.710Z,313
2018-05-25T14:22:36.866Z,322
2018-05-25T14:23:42.303Z,322
2018-05-25T14:24:47.152Z,328
2018-05-25T14:25:52.315Z,306
2018-05-25T14:26:57.749Z,416
2018-05-25T14:28:02.864Z,383
2018-05-25T14:29:08.230Z,383
2018-05-25T14:30:13.382Z,367
2018-05-25T14:31:18.926Z,367
2018-05-25T14:32:24.113Z,383
2018-05-25T14:33:29.466Z,400
2018-05-25T14:34:34.632Z,416
2018-05-25T14:35:40.093Z,423
2018-05-25T14:36:45.504Z,423
2018-05-25T14:37:50.947Z,423
2018-05-25T14:38:55.551Z,423
2018-05-25T14:40:00.394Z,385
2018-05-25T14:41:05.289Z,440
2018-05-25T14:42:10.184Z,416
2018-05-25T14:43:15.323Z,432
2018-05-25T14:44:20.481Z,432
2018-05-25T14:45:26.218Z,407
2018-05-25T14:46:31.108Z,416
2018-05-25T14:47:36.262Z,352
2018-05-25T14:48:42.094Z,328
2018-05-25T14:49:47.526Z,273
2018-05-25T14:50:52.704Z,273
2018-05-25T14:51:58.126Z,273
2018-05-25T14:53:02.443Z,273
2018-05-25T14:54:07.027Z,289
2018-05-25T14:55:12.531Z,297
2018-05-25T14:56:17.977Z,304
2018-05-25T14:57:23.348Z,383
2018-05-25T14:58:29.093Z,280
2018-05-25T14:59:34.295Z,280
2018-05-25T15:00:39.150Z,313
2018-05-25T15:01:43.736Z,313
2018-05-25T15:02:48.622Z,337
2018-05-25T15:03:53.746Z,386
2018-05-25T15:04:58.897Z,441
2018-05-25T15:06:03.811Z,480
2018-05-25T15:07:09.221Z,513
2018-05-25T15:08:14.377Z,513
2018-05-25T15:09:19.547Z,506
2018-05-25T15:10:25.232Z,497
2018-05-25T15:11:30.396Z,513
2018-05-25T15:12:35.373Z,497
2018-05-25T15:13:40.262Z,370
2018-05-25T15:14:45.419Z,370
2018-05-25T15:15:50.574Z,385
2018-05-25T15:16:55.770Z,337
2018-05-25T15:18:01.206Z,322
2018-05-25T15:19:06.201Z,289
2018-05-25T15:20:11.348Z,257
2018-05-25T15:21:17.023Z,282
2018-05-25T15:22:22.991Z,257